createdAt,value
2019-06-10T00:03:00.000Z,98970
2019-06-10T00:08:00.000Z,98977
2019-06-10T00:13:00.000Z,98978
2019-06-10T00:18:00.000Z,98977
2019-06-10T00:23:00.000Z,98971
2019-06-10T00:28:00.000Z,98960
2019-06-10T00:33:00.000Z,98958
2019-06-10T00:38:00.000Z,98962
2019-06-10T00:43:00.000Z,98961
2019-06-10T00:48:00.000Z,98957
2019-06-10T00:53:00.000Z,98967
2019-06-10T00:58:00.000Z,98963
2019-06-10T01:03:00.000Z,98961
2019-06-10T01:08:00.000Z,98952
2019-06-10T01:13:00.000Z,98944
2019-06-10T01:18:00.000Z,98936
2019-06-10T01:23:00.000Z,98926
2019-06-10T01:28:00.000Z,98920
2019-06-10T01:33:00.000Z,98889
2019-06-10T01:38:00.000Z,98884
2019-06-10T01:43:00.000Z,98876
2019-06-10T01:48:00.000Z,98881
2019-06-10T01:54:00.000Z,98883
2019-06-10T01:59:00.000Z,98890
2019-06-10T02:04:00.000Z,98877
2019-06-10T02:09:00.000Z,98870
2019-06-10T02:14:00.000Z,98871
2019-06-10T02:19:00.000Z,98860
2019-06-10T02:24:00.000Z,98849
2019-06-10T02:29:00.000Z,98846
2019-06-10T02:34:00.000Z,98842
2019-06-10T02:39:00.000Z,98837
2019-06-10T02:44:00.000Z,98827
2019-06-10T02:49:00.000Z,98820
2019-06-10T02:54:00.000Z,98812
2019-06-10T02:59:00.000Z,98829
2019-06-10T03:04:00.000Z,98837
2019-06-10T03:09:00.000Z,98827
2019-06-10T03:14:00.000Z,98838
2019-06-10T03:19:00.000Z,98824
2019-06-10T03:24:00.000Z,98823
2019-06-10T03:29:00.000Z,98842
2019-06-10T03:35:00.000Z,98819
2019-06-10T03:40:00.000Z,98833
2019-06-10T03:45:00.000Z,98831
2019-06-10T03:50:00.000Z,98832
2019-06-10T03:55:00.000Z,98840
2019-06-10T04:00:00.000Z,98826
2019-06-10T04:05:00.000Z,98817
2019-06-10T04:10:00.000Z,98813
2019-06-10T04:15:00.000Z,98813
2019-06-10T04:20:00.000Z,98797
2019-06-10T04:25:00.000Z,98806
2019-06-10T04:30:00.000Z,98803
2019-06-10T04:35:00.000Z,98807
2019-06-10T04:40:00.000Z,98801
2019-06-10T04:45:00.000Z,98801
2019-06-10T04:50:00.000Z,98772
2019-06-10T04:55:00.000Z,98775
2019-06-10T05:00:00.000Z,98779
2019-06-10T05:05:00.000Z,98786
2019-06-10T05:10:00.000Z,98789
2019-06-10T05:15:00.000Z,98784
2019-06-10T05:20:00.000Z,98789
2019-06-10T05:25:00.000Z,98800
2019-06-10T05:30:00.000Z,98791
2019-06-10T05:36:00.000Z,98794
2019-06-10T05:41:00.000Z,98776
2019-06-10T05:46:00.000Z,98773
2019-06-10T05:51:00.000Z,98780
2019-06-10T05:56:00.000Z,98759
2019-06-10T06:01:00.000Z,98753
2019-06-10T06:06:00.000Z,98746
2019-06-10T06:11:00.000Z,98748
2019-06-10T06:16:00.000Z,98747
2019-06-10T06:21:00.000Z,98744
2019-06-10T06:26:00.000Z,98755
2019-06-10T06:31:00.000Z,98748
2019-06-10T06:36:00.000Z,98756
2019-06-10T06:41:00.000Z,98756
2019-06-10T06:46:00.000Z,98740
2019-06-10T06:51:00.000Z,98736
2019-06-10T06:56:00.000Z,98738
2019-06-10T07:02:00.000Z,98738
2019-06-10T07:07:00.000Z,98725
2019-06-10T07:12:00.000Z,98721
2019-06-10T07:17:00.000Z,98725
2019-06-10T07:22:00.000Z,98721
2019-06-10T07:27:00.000Z,98715
2019-06-10T07:32:00.000Z,98722
2019-06-10T07:37:00.000Z,98708
2019-06-10T07:42:00.000Z,98707
2019-06-10T07:47:00.000Z,98711
2019-06-10T07:52:00.000Z,98712
2019-06-10T07:57:00.000Z,98720
2019-06-10T08:02:00.000Z,98711
2019-06-10T08:07:00.000Z,98702
2019-06-10T08:12:00.000Z,98723
2019-06-10T08:17:00.000Z,98725
2019-06-10T08:22:00.000Z,98729
2019-06-10T08:27:00.000Z,98724
2019-06-10T08:32:00.000Z,98731
2019-06-10T08:37:00.000Z,98732
2019-06-10T08:42:00.000Z,98728
2019-06-10T08:47:00.000Z,98726
2019-06-10T08:52:00.000Z,98720
2019-06-10T08:58:00.000Z,98714
2019-06-10T09:03:00.000Z,98716
2019-06-10T09:08:00.000Z,98709
2019-06-10T09:13:00.000Z,98707
2019-06-10T09:18:00.000Z,98701
2019-06-10T09:23:00.000Z,98703
2019-06-10T09:28:00.000Z,98695
2019-06-10T09:33:00.000Z,98684
2019-06-10T09:38:00.000Z,98675
2019-06-10T09:43:00.000Z,98680
2019-06-10T09:48:00.000Z,98663
2019-06-10T09:53:00.000Z,98667
2019-06-10T09:58:00.000Z,98668
2019-06-10T10:03:00.000Z,98659
2019-06-10T10:09:00.000Z,98658
2019-06-10T10:14:00.000Z,98672
2019-06-10T10:19:00.000Z,98653
2019-06-10T10:24:00.000Z,98672
2019-06-10T10:29:00.000Z,98661
2019-06-10T10:34:00.000Z,98657
2019-06-10T10:39:00.000Z,98657
2019-06-10T10:44:00.000Z,98647
2019-06-10T10:49:00.000Z,98634
2019-06-10T10:54:00.000Z,98618
2019-06-10T10:59:00.000Z,98631
2019-06-10T11:04:00.000Z,98639
2019-06-10T11:09:00.000Z,98632
2019-06-10T11:14:00.000Z,98622
2019-06-10T11:19:00.000Z,98616
2019-06-10T11:24:00.000Z,98619
2019-06-10T11:29:00.000Z,98624
2019-06-10T11:34:00.000Z,98618
2019-06-10T11:39:00.000Z,98616
2019-06-10T11:44:00.000Z,98613
2019-06-10T11:50:00.000Z,98599
2019-06-10T11:55:00.000Z,98594
2019-06-10T12:00:00.000Z,98586
2019-06-10T12:05:00.000Z,98574
2019-06-10T12:10:00.000Z,98581
2019-06-10T12:15:00.000Z,98572
2019-06-10T12:20:00.000Z,98565
2019-06-10T12:25:00.000Z,98561
2019-06-10T12:30:00.000Z,98547
2019-06-10T12:35:00.000Z,98538
2019-06-10T12:40:00.000Z,98547
2019-06-10T12:45:00.000Z,98548
2019-06-10T12:50:00.000Z,98551
2019-06-10T12:55:00.000Z,98551
2019-06-10T13:00:00.000Z,98543
2019-06-10T13:05:00.000Z,98541
2019-06-10T13:10:00.000Z,98536
2019-06-10T13:15:00.000Z,98535
2019-06-10T13:20:00.000Z,98532
2019-06-10T13:25:00.000Z,98522
2019-06-10T13:31:00.000Z,98510
2019-06-10T13:36:00.000Z,98502
2019-06-10T13:41:00.000Z,98497
2019-06-10T13:46:00.000Z,98483
2019-06-10T13:51:00.000Z,98478
2019-06-10T13:56:00.000Z,98479
2019-06-10T14:01:00.000Z,98469
2019-06-10T14:06:00.000Z,98470
2019-06-10T14:11:00.000Z,98448
2019-06-10T14:16:00.000Z,98459
2019-06-10T14:21:00.000Z,98444
2019-06-10T14:26:00.000Z,98441
2019-06-10T14:32:00.000Z,98433
2019-06-10T14:37:00.000Z,98442
2019-06-10T14:42:00.000Z,98439
2019-06-10T14:47:00.000Z,98429
2019-06-10T14:52:00.000Z,98420
2019-06-10T14:57:00.000Z,98422
2019-06-10T15:02:00.000Z,98412
2019-06-10T15:07:00.000Z,98412
2019-06-10T15:12:00.000Z,98403
2019-06-10T15:17:00.000Z,98402
2019-06-10T15:22:00.000Z,98405
2019-06-10T15:27:00.000Z,98399
2019-06-10T15:32:00.000Z,98408
2019-06-10T15:37:00.000Z,98389
2019-06-10T15:42:00.000Z,98384
2019-06-10T15:47:00.000Z,98377
2019-06-10T15:52:00.000Z,98368
2019-06-10T15:57:00.000Z,98371
2019-06-10T16:02:00.000Z,98367
2019-06-10T16:07:00.000Z,98377
2019-06-10T16:12:00.000Z,98372
2019-06-10T16:17:00.000Z,98376
2019-06-10T16:22:00.000Z,98375
2019-06-10T16:27:00.000Z,98379
2019-06-10T16:32:00.000Z,98375
2019-06-10T16:37:00.000Z,98381
2019-06-10T16:42:00.000Z,98374
2019-06-10T16:47:00.000Z,98374
2019-06-10T16:52:00.000Z,98378
2019-06-10T16:57:00.000Z,98365
2019-06-10T17:03:00.000Z,98356
2019-06-10T17:08:00.000Z,98346
2019-06-10T17:13:00.000Z,98348
2019-06-10T17:18:00.000Z,98342
2019-06-10T17:23:00.000Z,98340
2019-06-10T17:28:00.000Z,98334
2019-06-10T17:33:00.000Z,98336
2019-06-10T17:38:00.000Z,98340
2019-06-10T17:43:00.000Z,98341
2019-06-10T17:48:00.000Z,98345
2019-06-10T17:53:00.000Z,98347
2019-06-10T17:58:00.000Z,98345
2019-06-10T18:03:00.000Z,98351
2019-06-10T18:08:00.000Z,98351
2019-06-10T18:13:00.000Z,98365
2019-06-10T18:18:00.000Z,98369
2019-06-10T18:24:00.000Z,98381
2019-06-10T18:29:00.000Z,98388
2019-06-10T18:34:00.000Z,98399
2019-06-10T18:39:00.000Z,98404
2019-06-10T18:44:00.000Z,98398
2019-06-10T18:49:00.000Z,98397
2019-06-10T18:54:00.000Z,98391
2019-06-10T18:59:00.000Z,98378
2019-06-10T19:04:00.000Z,98383
2019-06-10T19:09:00.000Z,98375
2019-06-10T19:14:00.000Z,98371
2019-06-10T19:19:00.000Z,98386
2019-06-10T19:24:00.000Z,98387
2019-06-10T19:29:00.000Z,98382
2019-06-10T19:34:00.000Z,98392
2019-06-10T19:39:00.000Z,98392
2019-06-10T19:44:00.000Z,98399
2019-06-10T19:49:00.000Z,98395
2019-06-10T19:54:00.000Z,98406
2019-06-10T19:59:00.000Z,98412
2019-06-10T20:05:00.000Z,98415
2019-06-10T20:10:00.000Z,98418
2019-06-10T20:15:00.000Z,98407
2019-06-10T20:20:00.000Z,98413
2019-06-10T20:25:00.000Z,98391
2019-06-10T20:30:00.000Z,98391
2019-06-10T20:35:00.000Z,98377
2019-06-10T20:40:00.000Z,98381
2019-06-10T20:45:00.000Z,98381
2019-06-10T20:50:00.000Z,98377
2019-06-10T20:55:00.000Z,98369
2019-06-10T21:00:00.000Z,98368
2019-06-10T21:05:00.000Z,98362
2019-06-10T21:10:00.000Z,98366
2019-06-10T21:16:00.000Z,98369
2019-06-10T21:21:00.000Z,98381
2019-06-10T21:26:00.000Z,98379
2019-06-10T21:31:00.000Z,98384
2019-06-10T21:36:00.000Z,98387
2019-06-10T21:41:00.000Z,98381
2019-06-10T21:46:00.000Z,98377
2019-06-10T21:51:00.000Z,98370
2019-06-10T21:56:00.000Z,98361
2019-06-10T22:01:00.000Z,98369
2019-06-10T22:06:00.000Z,98377
2019-06-10T22:11:00.000Z,98383
2019-06-10T22:16:00.000Z,98385
2019-06-10T22:21:00.000Z,98387
2019-06-10T22:26:00.000Z,98390
2019-06-10T22:31:00.000Z,98399
2019-06-10T22:36:00.000Z,98405
2019-06-10T22:41:00.000Z,98397
2019-06-10T22:46:00.000Z,98398
2019-06-10T22:51:00.000Z,98396
2019-06-10T22:56:00.000Z,98392
2019-06-10T23:01:00.000Z,98380
2019-06-10T23:06:00.000Z,98387
2019-06-10T23:11:00.000Z,98369
2019-06-10T23:16:00.000Z,98373
2019-06-10T23:21:00.000Z,98359
2019-06-10T23:26:00.000Z,98352
2019-06-10T23:31:00.000Z,98350
2019-06-10T23:37:00.000Z,98354
2019-06-10T23:42:00.000Z,98357
2019-06-10T23:47:00.000Z,98339
2019-06-10T23:52:00.000Z,98330
2019-06-10T23:57:00.000Z,98328
